Terminal Aerodrome Forecast
Issued by NWS Jackson, KY

Home | Current Version | Previous Version | Text Only | Print | Product List | Glossary On
Versions: 1 2 3 4 5 6 7 8 9 10 11 12 13 14 15 16 17 18 19 20 21
000
FTUS43 KJKL 260233 AAA
TAFLOZ
TAF AMD
KLOZ 260233Z 2603/2624 03007KT P6SM VCTS SCT060CB BKN070 OVC100
     FM260700 33008KT 6SM -SHRA OVC005
     FM261500 01008KT P6SM SCT008 OVC018
     FM262100 02006KT P6SM SCT025 BKN035=

USA.gov is the U.S. government's official web portal to all federal, state and local government web resources and services.